Time;durP1;ratioP1;P1;durP2;ratioP2;P2;SDS_P1;SDS_P2;PMS_P1;PMS_P2;Temp;Humidity;BMP_temperature;BMP_pressure;BME280_temperature;BME280_humidity;BME280_pressure;Samples;Min_cycle;Max_cycle;Signal;HPM_P1;HPM_P2
2023/01/08 00:02:09;;;;;;;;;;;5.50;99.90;;;4.68;100.00;96710.66;5034793;28;19962;-37
2023/01/08 00:04:34;;;;;;;;;;;5.40;99.90;;;4.57;100.00;96697.88;5028276;28;19917;-37
2023/01/08 00:07:00;;;;;;;;;;;5.30;99.90;;;4.52;100.00;96676.22;5036834;28;19927;-37
2023/01/08 00:09:26;;;;;;;;;;;5.30;99.90;;;4.54;100.00;96675.31;5028780;28;20031;-36
2023/01/08 00:11:51;;;;;;;;;;;5.30;99.90;;;4.53;100.00;96675.34;5027586;28;20343;-37
2023/01/08 00:14:17;;;;;;;;;;;5.20;99.90;;;4.60;100.00;96674.31;5026501;28;20592;-35
2023/01/08 00:16:43;;;;;;;;;;;5.30;99.90;;;4.58;100.00;96669.13;5024201;28;20024;-36
2023/01/08 00:19:10;;;;;;;;;;;5.30;99.90;;;4.66;100.00;96674.13;5033765;28;20002;-36
2023/01/08 00:21:36;;;;;;;;;;;5.40;99.90;;;4.64;100.00;96675.94;5021174;28;19927;-36
2023/01/08 00:24:01;;;;;;;;;;;5.30;99.90;;;4.63;100.00;96681.19;5027689;28;19924;-36
2023/01/08 00:26:27;;;;;;;;;;;5.30;99.90;;;4.59;100.00;96681.28;5027215;28;19932;-36
2023/01/08 00:28:53;;;;;;;;;;;5.30;99.90;;;4.53;100.00;96681.44;5029522;28;20013;-36
2023/01/08 00:31:18;;;;;;;;;;;5.30;99.90;;;4.43;100.00;96661.66;5034928;28;19932;-36
2023/01/08 00:33:44;;;;;;;;;;;5.20;99.90;;;4.52;100.00;96669.28;5035159;28;19924;-36
2023/01/08 00:36:12;;;;;;;;;;;5.20;99.90;;;4.53;100.00;96665.75;5028406;28;20837;-36
2023/01/08 00:38:37;;;;;;;;;;;5.30;99.90;;;4.45;100.00;96641.59;5016367;28;19925;-36
2023/01/08 00:41:03;;;;;;;;;;;5.30;99.90;;;4.57;100.00;96641.28;5026868;28;19924;-36
2023/01/08 00:43:29;;;;;;;;;;;5.30;99.90;;;4.61;100.00;96635.97;5034243;28;20274;-36
2023/01/08 00:45:55;;;;;;;;;;;5.30;99.90;;;4.69;100.00;96637.50;5033611;28;20194;-36
2023/01/08 00:48:21;;;;;;;;;;;5.40;99.90;;;4.81;100.00;96632.84;5035875;28;19928;-36
2023/01/08 00:50:48;;;;;;;;;;;5.50;99.90;;;4.91;100.00;96619.50;5028322;28;20440;-36
2023/01/08 00:53:14;;;;;;;;;;;5.60;99.90;;;4.95;100.00;96635.94;5031005;28;19921;-36
2023/01/08 00:55:39;;;;;;;;;;;5.60;99.90;;;5.02;100.00;96629.66;5029675;28;19917;-36
2023/01/08 00:58:05;;;;;;;;;;;5.70;99.90;;;5.00;100.00;96623.63;5033798;28;19928;-36
2023/01/08 01:00:31;;;;;;;;;;;5.70;99.90;;;5.08;100.00;96632.13;5031023;28;19920;-36
2023/01/08 01:02:56;;;;;;;;;;;5.70;99.90;;;5.07;100.00;96635.63;5036657;28;20067;-36
2023/01/08 01:05:22;;;;;;;;;;;5.80;99.90;;;5.05;100.00;96626.97;5015460;28;20387;-36
2023/01/08 01:07:48;;;;;;;;;;;5.80;99.90;;;5.08;100.00;96620.78;5036369;28;20049;-36
2023/01/08 01:10:15;;;;;;;;;;;5.80;99.90;;;4.92;100.00;96594.25;5032049;28;19925;-36
2023/01/08 01:12:40;;;;;;;;;;;5.80;99.90;;;5.03;100.00;96614.88;5032729;28;20015;-36
2023/01/08 01:15:07;;;;;;;;;;;5.70;99.90;;;5.01;100.00;96617.50;5031268;28;19925;-38
2023/01/08 01:17:34;;;;;;;;;;;5.70;99.90;;;4.97;100.00;96618.47;5015030;28;20052;-37
2023/01/08 01:20:00;;;;;;;;;;;5.70;99.90;;;4.95;100.00;96615.06;5034014;28;19920;-37
2023/01/08 01:22:25;;;;;;;;;;;5.70;99.90;;;4.92;100.00;96609.94;5029260;28;20422;-38
2023/01/08 01:24:51;;;;;;;;;;;5.60;99.90;;;4.86;100.00;96610.06;5028353;28;19963;-37
2023/01/08 01:27:17;;;;;;;;;;;5.60;99.90;;;4.93;100.00;96627.31;5027577;28;19928;-38
2023/01/08 01:29:42;;;;;;;;;;;5.60;99.90;;;4.87;100.00;96609.19;5037380;28;19955;-38
2023/01/08 01:32:09;;;;;;;;;;;5.60;99.90;;;4.93;100.00;96604.63;5032920;28;19928;-37
2023/01/08 01:34:35;;;;;;;;;;;5.60;99.90;;;4.85;100.00;96590.94;5027588;28;20070;-38
2023/01/08 01:37:01;;;;;;;;;;;5.60;99.90;;;4.88;100.00;96595.22;5029044;28;20416;-38
2023/01/08 01:39:26;;;;;;;;;;;5.70;99.90;;;4.96;100.00;96617.63;5008933;28;19967;-38
2023/01/08 01:41:52;;;;;;;;;;;5.70;99.90;;;4.96;100.00;96622.84;5029923;28;19925;-37
2023/01/08 01:44:38;;;;;;;;;;;5.70;99.90;;;4.98;100.00;96628.03;5033033;28;19921;-38
2023/01/08 01:47:20;;;;;;;;;;;5.70;99.90;;;4.97;100.00;96629.81;5030952;28;19932;-38
2023/01/08 01:49:54;;;;;;;;;;;5.70;99.90;;;4.90;100.00;96623.03;5030670;28;20307;-39
2023/01/08 01:52:21;;;;;;;;;;;5.80;99.90;;;5.04;100.00;96627.00;5031753;28;20395;-38
2023/01/08 01:54:48;;;;;;;;;;;5.80;99.90;;;5.10;100.00;96629.47;5015151;28;19990;-38
2023/01/08 01:57:14;;;;;;;;;;;5.80;99.90;;;5.14;100.00;96629.34;5004331;28;19917;-38
2023/01/08 01:59:40;;;;;;;;;;;5.90;99.90;;;5.20;100.00;96627.44;5030514;28;19955;-39
2023/01/08 02:02:06;;;;;;;;;;;5.90;99.90;;;5.23;100.00;96628.22;5013304;28;19948;-39
2023/01/08 02:04:32;;;;;;;;;;;6.00;99.90;;;5.29;100.00;96619.34;5028915;28;20585;-39
2023/01/08 02:07:23;;;;;;;;;;;6.00;99.90;;;5.37;100.00;96616.53;5030755;28;21285;-39
2023/01/08 02:10:04;;;;;;;;;;;6.10;99.90;;;5.45;100.00;96609.31;5029299;28;19925;-38
2023/01/08 02:12:34;;;;;;;;;;;6.10;99.90;;;5.52;100.00;96609.06;5032672;28;20000;-39
2023/01/08 02:15:20;;;;;;;;;;;6.20;99.90;;;5.61;100.00;96609.72;5014132;28;19928;-39
2023/01/08 02:18:10;;;;;;;;;;;6.30;99.90;;;5.54;100.00;96586.38;5036970;28;20415;-37
2023/01/08 02:20:39;;;;;;;;;;;6.30;99.90;;;5.71;100.00;96600.69;5021868;28;19935;-38
2023/01/08 02:23:28;;;;;;;;;;;6.40;99.90;;;5.74;100.00;96606.69;5016804;28;19921;-38
2023/01/08 02:26:10;;;;;;;;;;;6.40;99.90;;;5.78;100.00;96597.00;5017579;28;21573;-39
2023/01/08 02:28:58;;;;;;;;;;;6.40;99.90;;;5.78;100.00;96597.00;5016009;28;19925;-39
2023/01/08 02:31:26;;;;;;;;;;;6.50;99.90;;;5.61;100.00;96554.78;5024761;22;19937;-50
2023/01/08 02:33:52;;;;;;;;;;;6.40;99.90;;;5.81;100.00;96581.16;5007605;28;19931;-51
2023/01/08 02:36:20;;;;;;;;;;;6.50;99.90;;;5.83;100.00;96575.91;5012595;28;20200;-51
2023/01/08 02:39:24;;;;;;;;;;;6.50;99.90;;;5.86;100.00;96566.19;5019598;28;19929;-51
2023/01/08 02:42:28;;;;;;;;;;;6.50;99.90;;;5.84;100.00;96565.38;5020389;28;20011;-52
2023/01/08 02:45:17;;;;;;;;;;;6.60;99.90;;;5.83;100.00;96557.56;5031663;28;19936;-52
2023/01/08 02:47:45;;;;;;;;;;;6.50;99.90;;;5.88;100.00;96553.91;5016835;28;19960;-49
2023/01/08 02:50:22;;;;;;;;;;;6.60;99.90;;;5.89;100.00;96549.56;5038051;28;19928;-51
2023/01/08 02:53:02;;;;;;;;;;;6.60;99.90;;;5.89;100.00;96536.47;5034802;28;19961;-52
2023/01/08 02:55:29;;;;;;;;;;;6.60;99.90;;;5.92;100.00;96547.69;5033518;28;19952;-51
2023/01/08 02:57:55;;;;;;;;;;;6.60;99.90;;;5.90;100.00;96533.81;5030635;28;19927;-51
2023/01/08 03:00:21;;;;;;;;;;;6.60;99.90;;;5.98;100.00;96535.34;5035015;28;19924;-52
2023/01/08 03:02:50;;;;;;;;;;;6.60;99.90;;;5.96;100.00;96521.44;5017094;28;19931;-51
2023/01/08 03:05:24;;;;;;;;;;;6.70;99.90;;;6.01;100.00;96541.34;5032184;28;20728;-51
2023/01/08 03:07:50;;;;;;;;;;;6.70;99.90;;;6.02;100.00;96540.41;5018774;28;19956;-51
2023/01/08 03:10:17;;;;;;;;;;;6.70;99.90;;;6.00;100.00;96528.31;5031851;28;19924;-52
2023/01/08 03:12:53;;;;;;;;;;;6.70;99.90;;;5.97;100.00;96531.00;5014671;28;19920;-52
2023/01/08 03:15:24;;;;;;;;;;;6.70;99.90;;;5.95;100.00;96527.56;4998211;28;19920;-51
2023/01/08 03:17:53;;;;;;;;;;;6.60;99.90;;;5.93;100.00;96525.84;5023296;28;19931;-50
2023/01/08 03:20:20;;;;;;;;;;;6.60;99.90;;;5.81;100.00;96501.81;5028701;28;19920;-51
2023/01/08 03:22:49;;;;;;;;;;;6.60;99.90;;;5.94;100.00;96529.31;5017660;28;20404;-50
2023/01/08 03:25:18;;;;;;;;;;;6.60;99.90;;;5.96;100.00;96518.81;5030253;28;19928;-52
2023/01/08 03:27:48;;;;;;;;;;;6.60;99.90;;;5.95;100.00;96515.31;5015826;28;19925;-51
2023/01/08 03:30:15;;;;;;;;;;;6.60;99.90;;;5.97;100.00;96515.31;5016136;28;19989;-47
2023/01/08 03:32:41;;;;;;;;;;;6.70;99.90;;;5.96;100.00;96510.97;5013945;28;19977;-48
2023/01/08 03:35:09;;;;;;;;;;;6.60;99.90;;;5.98;100.00;96511.78;5035424;28;19916;-52
2023/01/08 03:37:38;;;;;;;;;;;6.70;99.90;;;5.97;100.00;96505.69;5020612;28;19921;-51
2023/01/08 03:40:08;;;;;;;;;;;6.70;99.90;;;5.95;100.00;96502.22;5031833;28;19931;-49
2023/01/08 03:42:34;;;;;;;;;;;6.60;99.90;;;5.95;100.00;96494.38;5009510;28;19920;-50
2023/01/08 03:45:00;;;;;;;;;;;6.70;99.90;;;5.99;100.00;96501.25;5031955;28;20364;-50
2023/01/08 03:47:28;;;;;;;;;;;6.70;99.90;;;5.93;100.00;96488.34;5031079;28;19935;-49
2023/01/08 03:49:54;;;;;;;;;;;6.70;99.90;;;5.98;100.00;96494.31;5036762;28;19932;-51
2023/01/08 03:52:22;;;;;;;;;;;6.70;99.90;;;6.00;100.00;96491.66;5015088;28;20395;-49
2023/01/08 03:54:48;;;;;;;;;;;6.70;99.90;;;5.98;100.00;96491.72;5030034;28;20011;-49
2023/01/08 03:57:13;;;;;;;;;;;6.70;99.90;;;6.02;100.00;96495.06;5029426;28;20279;-51
2023/01/08 03:59:39;;;;;;;;;;;6.70;99.90;;;5.99;100.00;96482.09;5033839;28;20027;-51
2023/01/08 04:02:04;;;;;;;;;;;6.70;99.90;;;6.04;100.00;96488.88;5024631;28;20364;-47
2023/01/08 04:04:30;;;;;;;;;;;6.70;99.90;;;6.03;100.00;96483.69;5032017;28;20015;-48
2023/01/08 04:06:56;;;;;;;;;;;6.70;99.90;;;6.02;100.00;96482.84;5030513;28;19927;-46
2023/01/08 04:09:21;;;;;;;;;;;6.70;99.90;;;6.01;100.00;96486.38;5034780;28;20019;-51
2023/01/08 04:11:47;;;;;;;;;;;6.70;99.90;;;6.03;100.00;96486.31;5030109;28;20149;-51
2023/01/08 04:14:12;;;;;;;;;;;6.70;99.90;;;6.03;100.00;96488.91;5029398;28;20015;-51
2023/01/08 04:16:38;;;;;;;;;;;6.70;99.90;;;6.04;100.00;96472.31;5028947;28;20330;-52
2023/01/08 04:19:04;;;;;;;;;;;6.70;99.90;;;6.02;100.00;96474.97;5032770;28;20316;-49
2023/01/08 04:21:29;;;;;;;;;;;6.70;99.90;;;6.04;100.00;96473.16;5029730;28;19922;-49
2023/01/08 04:23:55;;;;;;;;;;;6.70;99.90;;;6.00;100.00;96470.72;5026219;28;20312;-52
2023/01/08 04:26:21;;;;;;;;;;;6.70;99.90;;;6.02;100.00;96482.00;5026793;28;19924;-49
2023/01/08 04:28:47;;;;;;;;;;;6.70;99.90;;;6.07;100.00;96473.06;5012638;28;23095;-51
2023/01/08 04:31:12;;;;;;;;;;;6.70;99.90;;;6.08;100.00;96479.16;5034313;28;19939;-50
2023/01/08 04:33:38;;;;;;;;;;;6.70;99.90;;;6.10;100.00;96482.56;5027643;28;20003;-52
2023/01/08 04:36:04;;;;;;;;;;;6.80;99.90;;;6.10;100.00;96486.06;5029006;28;20498;-52
2023/01/08 04:38:30;;;;;;;;;;;6.80;99.90;;;6.17;100.00;96483.22;5032504;28;19924;-53
2023/01/08 04:40:59;;;;;;;;;;;6.80;99.90;;;6.29;100.00;96482.81;5032737;28;19985;-50
2023/01/08 04:43:26;;;;;;;;;;;6.90;99.90;;;6.44;100.00;96491.88;5026993;28;19932;-51
2023/01/08 04:45:52;;;;;;;;;;;7.00;99.90;;;6.58;100.00;96496.66;5033413;28;19921;-53
2023/01/08 04:48:18;;;;;;;;;;;7.20;99.90;;;6.71;100.00;96494.44;5030268;28;20396;-50
2023/01/08 04:50:43;;;;;;;;;;;7.30;99.90;;;6.84;100.00;96500.97;5032203;28;20510;-51
2023/01/08 04:53:09;;;;;;;;;;;7.40;99.90;;;6.95;100.00;96497.94;5027713;28;20030;-52
2023/01/08 04:55:34;;;;;;;;;;;7.60;99.90;;;7.05;100.00;96507.16;5029832;28;19920;-51
2023/01/08 04:58:00;;;;;;;;;;;7.60;99.90;;;7.14;100.00;96500.72;5032034;28;19929;-51
2023/01/08 05:00:26;;;;;;;;;;;7.70;99.90;;;7.23;100.00;96493.38;5032552;28;20660;-53
2023/01/08 05:02:52;;;;;;;;;;;7.80;99.90;;;7.31;100.00;96500.09;5027682;28;20621;-48
2023/01/08 05:05:17;;;;;;;;;;;7.90;99.90;;;7.32;100.00;96502.66;5030250;28;19920;-51
2023/01/08 05:07:43;;;;;;;;;;;7.90;99.90;;;7.38;100.00;96510.28;5030562;28;20367;-49
2023/01/08 05:10:09;;;;;;;;;;;8.00;99.90;;;7.44;100.00;96509.19;5033148;28;20046;-51
2023/01/08 05:12:35;;;;;;;;;;;8.00;99.90;;;7.45;100.00;96508.28;5037244;28;19916;-50
2023/01/08 05:15:00;;;;;;;;;;;8.10;99.90;;;7.50;100.00;96501.09;5014227;28;19940;-53
2023/01/08 05:17:26;;;;;;;;;;;8.10;99.90;;;7.51;100.00;96512.44;5026040;28;19925;-49
2023/01/08 05:19:51;;;;;;;;;;;8.10;99.90;;;7.54;100.00;96509.72;5029557;28;20309;-52
2023/01/08 05:22:17;;;;;;;;;;;8.10;99.90;;;7.55;100.00;96520.13;5029721;28;20587;-51
2023/01/08 05:24:43;;;;;;;;;;;8.20;99.90;;;7.58;100.00;96513.91;5030828;28;20582;-50
2023/01/08 05:27:08;;;;;;;;;;;8.20;99.90;;;7.57;100.00;96509.56;5032712;28;19947;-50
2023/01/08 05:29:34;;;;;;;;;;;8.20;99.90;;;7.57;100.00;96512.19;5027766;28;20471;-50
2023/01/08 05:31:59;;;;;;;;;;;8.20;99.90;;;7.64;100.00;96504.03;5028970;28;19925;-52
2023/01/08 05:34:25;;;;;;;;;;;8.30;99.90;;;7.68;100.00;96509.16;5029171;28;19917;-50
2023/01/08 05:36:51;;;;;;;;;;;8.30;99.90;;;7.69;100.00;96506.47;5027467;28;20465;-51
2023/01/08 05:39:16;;;;;;;;;;;8.30;99.90;;;7.69;100.00;96500.38;5029726;28;20488;-52
2023/01/08 05:41:42;;;;;;;;;;;8.30;99.90;;;7.67;100.00;96487.31;5032966;28;19931;-49
2023/01/08 05:44:08;;;;;;;;;;;8.30;99.90;;;7.71;100.00;96494.13;5026899;28;19956;-50
2023/01/08 05:46:34;;;;;;;;;;;8.30;99.90;;;7.72;100.00;96487.97;5020407;28;19920;-50
2023/01/08 05:49:00;;;;;;;;;;;8.30;99.90;;;7.71;100.00;96491.50;5019637;28;20621;-49
2023/01/08 05:51:25;;;;;;;;;;;8.40;99.90;;;7.71;100.00;96494.13;5035006;28;20386;-48
2023/01/08 05:53:51;;;;;;;;;;;8.30;99.90;;;7.74;100.00;96504.50;5048646;28;19927;-47
2023/01/08 05:56:16;;;;;;;;;;;8.30;99.90;;;7.72;100.00;96495.00;5056288;28;20565;-48
2023/01/08 05:58:42;;;;;;;;;;;8.30;99.90;;;7.67;100.00;96484.69;5034162;28;20472;-50
2023/01/08 06:01:10;;;;;;;;;;;8.30;99.90;;;7.57;100.00;96489.44;5056637;28;20629;-50
2023/01/08 06:03:37;;;;;;;;;;;8.30;99.90;;;7.55;100.00;96499.13;5045578;28;20375;-48
2023/01/08 06:06:04;;;;;;;;;;;8.20;99.90;;;7.56;100.00;96487.72;5047294;28;19916;-49
2023/01/08 06:08:30;;;;;;;;;;;8.20;99.90;;;7.45;100.00;96488.16;5053776;28;20015;-50
2023/01/08 06:11:00;;;;;;;;;;;8.10;99.90;;;7.39;100.00;96487.53;5055744;28;20019;-48
2023/01/08 06:13:26;;;;;;;;;;;8.00;99.90;;;7.40;100.00;96482.22;5051425;28;19916;-51
2023/01/08 06:15:52;;;;;;;;;;;8.00;99.90;;;7.37;100.00;96477.09;5047810;28;19916;-52
2023/01/08 06:18:18;;;;;;;;;;;8.00;99.90;;;7.37;100.00;96474.47;5056028;28;19924;-50
2023/01/08 06:20:43;;;;;;;;;;;8.00;99.90;;;7.40;100.00;96481.38;5055119;28;19931;-49
2023/01/08 06:23:09;;;;;;;;;;;8.00;99.90;;;7.37;100.00;96477.09;5048425;28;19921;-52
2023/01/08 06:25:35;;;;;;;;;;;8.00;99.90;;;7.38;100.00;96473.56;5051378;28;19969;-52
2023/01/08 06:28:02;;;;;;;;;;;8.00;99.90;;;7.39;100.00;96469.16;5048381;28;19928;-52
2023/01/08 06:30:28;;;;;;;;;;;8.00;99.90;;;7.37;100.00;96471.84;5046046;28;19921;-50
2023/01/08 06:32:55;;;;;;;;;;;8.00;99.90;;;7.39;100.00;96472.66;5050772;28;20197;-52
2023/01/08 06:35:21;;;;;;;;;;;8.00;99.90;;;7.41;100.00;96470.84;5052175;28;19927;-51
2023/01/08 06:37:47;;;;;;;;;;;8.00;99.90;;;7.43;100.00;96463.75;5050337;28;19920;-49
2023/01/08 06:40:12;;;;;;;;;;;8.10;99.90;;;7.44;100.00;96449.69;5050279;28;19994;-51
2023/01/08 06:42:38;;;;;;;;;;;8.10;99.90;;;7.45;100.00;96448.81;5047867;28;20138;-53
2023/01/08 06:45:05;;;;;;;;;;;8.10;99.90;;;7.50;100.00;96456.50;5048102;28;19920;-53
2023/01/08 06:47:31;;;;;;;;;;;8.10;99.90;;;7.52;100.00;96454.66;5033928;28;19956;-50
2023/01/08 06:49:58;;;;;;;;;;;8.10;99.90;;;7.54;100.00;96459.84;5046770;28;20153;-50
2023/01/08 06:52:24;;;;;;;;;;;8.20;99.90;;;7.57;100.00;96459.72;5048407;28;19920;-52
2023/01/08 06:54:49;;;;;;;;;;;8.20;99.90;;;7.60;100.00;96464.84;5051702;28;20092;-52
2023/01/08 06:57:15;;;;;;;;;;;8.20;99.90;;;7.59;100.00;96460.50;5050100;28;20444;-51
2023/01/08 06:59:40;;;;;;;;;;;8.20;99.90;;;7.65;100.00;96455.88;5049998;28;20451;-49
2023/01/08 07:02:12;;;;;;;;;;;8.20;99.90;;;7.63;100.00;96447.22;5051968;28;20035;-51
2023/01/08 07:04:37;;;;;;;;;;;8.30;99.90;;;7.65;100.00;96449.78;5047938;28;19930;-53
2023/01/08 07:07:03;;;;;;;;;;;8.20;99.90;;;7.62;100.00;96457.75;5054127;28;19920;-52
2023/01/08 07:09:28;;;;;;;;;;;8.20;99.90;;;7.62;100.00;96447.25;5051912;28;19939;-49
2023/01/08 07:11:54;;;;;;;;;;;8.20;99.90;;;7.68;100.00;96440.91;5047564;28;20019;-51
2023/01/08 07:14:20;;;;;;;;;;;8.20;99.90;;;7.65;100.00;96447.16;5055635;28;19950;-51
2023/01/08 07:16:45;;;;;;;;;;;8.30;99.90;;;7.64;100.00;96448.06;5056992;28;19917;-48
2023/01/08 07:19:11;;;;;;;;;;;8.30;99.90;;;7.64;100.00;96440.19;5052013;28;19955;-51
2023/01/08 07:21:36;;;;;;;;;;;8.30;99.90;;;7.70;100.00;96449.56;5052388;28;20277;-52
2023/01/08 07:24:03;;;;;;;;;;;8.30;99.90;;;7.64;100.00;96455.94;5054879;28;20021;-50
2023/01/08 07:26:29;;;;;;;;;;;8.30;99.90;;;7.59;100.00;96456.13;5049674;28;20013;-51
2023/01/08 07:28:54;;;;;;;;;;;8.20;99.90;;;7.60;100.00;96456.97;5041700;28;19927;-49
2023/01/08 07:31:20;;;;;;;;;;;8.20;99.90;;;7.55;100.00;96465.00;5043355;28;20484;-52
2023/01/08 07:33:46;;;;;;;;;;;8.20;99.90;;;7.58;100.00;96470.16;5020707;28;20648;-50
2023/01/08 07:36:11;;;;;;;;;;;8.20;99.90;;;7.49;100.00;96473.16;5039997;28;19924;-51
2023/01/08 07:38:37;;;;;;;;;;;8.10;99.90;;;7.38;100.00;96454.34;5044874;28;19917;-51
2023/01/08 07:41:03;;;;;;;;;;;8.10;99.90;;;7.37;100.00;96463.97;5051374;28;20424;-48
2023/01/08 07:43:29;;;;;;;;;;;8.00;99.90;;;7.32;100.00;96460.69;5049814;28;19924;-52
2023/01/08 07:45:54;;;;;;;;;;;8.00;99.90;;;7.25;100.00;96472.34;5047383;28;19916;-49
2023/01/08 07:48:20;;;;;;;;;;;7.90;99.90;;;7.33;100.00;96467.63;5051842;28;19924;-53
2023/01/08 07:50:45;;;;;;;;;;;7.90;99.90;;;7.24;100.00;96465.38;5054902;28;19928;-51
2023/01/08 07:53:12;;;;;;;;;;;7.90;99.90;;;7.24;100.00;96473.25;5048302;28;20267;-50
2023/01/08 07:55:38;;;;;;;;;;;7.90;99.90;;;7.21;100.00;96470.72;5036414;28;19960;-50
2023/01/08 07:58:08;;;;;;;;;;;7.80;99.90;;;7.19;100.00;96469.94;5050208;28;19931;-49
2023/01/08 08:00:34;;;;;;;;;;;7.80;99.90;;;7.12;100.00;96460.59;5048116;28;19916;-51
2023/01/08 08:03:04;;;;;;;;;;;7.80;99.90;;;7.17;100.00;96458.66;5047425;28;20007;-51
2023/01/08 08:05:30;;;;;;;;;;;7.80;99.90;;;7.16;100.00;96463.06;5047875;28;19951;-48
2023/01/08 08:07:56;;;;;;;;;;;7.80;99.90;;;7.15;100.00;96468.34;5045621;28;19920;-50
2023/01/08 08:10:21;;;;;;;;;;;7.80;99.90;;;7.14;100.00;96461.41;5046288;28;20054;-51
2023/01/08 08:12:47;;;;;;;;;;;7.80;99.90;;;7.14;100.00;96454.41;5042535;28;20081;-51
2023/01/08 08:15:13;;;;;;;;;;;7.80;99.90;;;7.19;100.00;96462.91;5044005;28;20209;-50
2023/01/08 08:17:38;;;;;;;;;;;7.80;99.90;;;7.17;100.00;96456.88;5049606;28;19927;-52
2023/01/08 08:20:04;;;;;;;;;;;7.80;99.90;;;7.16;100.00;96459.56;5049172;28;20254;-50
2023/01/08 08:22:30;;;;;;;;;;;7.80;99.90;;;7.12;100.00;96461.44;5052292;28;19916;-50
2023/01/08 08:24:56;;;;;;;;;;;7.80;99.90;;;7.13;100.00;96459.69;5050118;28;20364;-50
2023/01/08 08:27:23;;;;;;;;;;;7.80;99.90;;;7.13;100.00;96462.31;5049271;28;20008;-52
2023/01/08 08:29:48;;;;;;;;;;;7.80;99.90;;;7.12;100.00;96448.34;5049772;28;19920;-51
2023/01/08 08:32:14;;;;;;;;;;;7.80;99.90;;;7.13;100.00;96450.06;5045139;22;19925;-39
2023/01/08 08:34:39;;;;;;;;;;;7.80;99.90;;;6.91;100.00;96408.09;5030554;28;19921;-39
2023/01/08 08:37:05;;;;;;;;;;;7.80;99.90;;;7.08;100.00;96452.84;5016334;28;19916;-39
2023/01/08 08:39:31;;;;;;;;;;;7.80;99.90;;;7.10;100.00;96441.47;5035056;28;20407;-39
2023/01/08 08:41:56;;;;;;;;;;;7.70;99.90;;;7.08;100.00;96439.72;5038139;28;19929;-39
2023/01/08 08:44:22;;;;;;;;;;;7.80;99.90;;;7.07;100.00;96432.81;5039668;28;19920;-37
2023/01/08 08:46:47;;;;;;;;;;;7.80;99.90;;;7.13;100.00;96438.72;5024338;28;20378;-37
2023/01/08 08:49:13;;;;;;;;;;;7.80;99.90;;;7.16;100.00;96434.22;5034533;28;19921;-37
2023/01/08 08:51:39;;;;;;;;;;;7.80;99.90;;;7.17;100.00;96440.31;5038443;28;20244;-37
2023/01/08 08:54:04;;;;;;;;;;;7.80;99.90;;;7.19;100.00;96431.44;5033307;28;19923;-37
2023/01/08 08:56:30;;;;;;;;;;;7.80;99.90;;;7.25;100.00;96433.00;5030473;28;20278;-37
2023/01/08 08:58:57;;;;;;;;;;;7.90;99.90;;;7.21;100.00;96429.66;5028954;28;20520;-38
2023/01/08 09:01:22;;;;;;;;;;;7.90;99.90;;;7.23;100.00;96432.19;5022583;28;19978;-38
2023/01/08 09:03:48;;;;;;;;;;;7.90;99.90;;;7.25;100.00;96430.38;5020829;28;19920;-38
2023/01/08 09:06:14;;;;;;;;;;;7.90;99.90;;;7.26;100.00;96424.22;5030261;28;19920;-38
2023/01/08 09:08:40;;;;;;;;;;;7.90;99.90;;;7.29;100.00;96439.84;5022309;28;20296;-38
2023/01/08 09:12:15;;;;;;;2.03;0.90;;;7.90;99.90;;;7.25;100.00;96423.38;5077260;27;20461;-40
2023/01/08 09:14:41;;;;;;;1.65;1.00;;;8.00;99.90;;;7.26;100.00;96414.56;5052849;28;20036;-39
2023/01/08 09:17:06;;;;;;;2.38;1.10;;;8.00;99.90;;;7.30;100.00;96417.06;5046709;28;20032;-41
2023/01/08 09:19:32;;;;;;;1.20;0.90;;;8.00;99.90;;;7.39;100.00;96420.22;5045450;28;20036;-40
2023/01/08 09:21:58;;;;;;;1.13;0.90;;;8.00;99.90;;;7.40;100.00;96421.06;5050307;28;20032;-40
2023/01/08 09:24:24;;;;;;;1.85;0.70;;;8.10;99.90;;;7.45;100.00;96425.19;5056036;28;21239;-40
2023/01/08 09:26:53;;;;;;;1.98;1.00;;;8.10;99.90;;;7.48;100.00;96432.06;5059690;28;20031;-39
2023/01/08 09:29:19;;;;;;;1.58;0.80;;;8.10;99.90;;;7.52;100.00;96435.44;5056328;28;20484;-39
2023/01/08 09:31:45;;;;;;;2.40;1.00;;;8.20;99.90;;;7.50;100.00;96425.03;5055663;28;20424;-39
2023/01/08 09:34:11;;;;;;;1.73;1.30;;;8.20;99.90;;;7.56;100.00;96429.16;5058649;28;20942;-38
2023/01/08 09:36:37;;;;;;;1.00;0.73;;;8.20;99.90;;;7.58;100.00;96433.41;5072473;28;20034;-39
2023/01/08 09:39:03;;;;;;;1.70;0.90;;;8.20;99.90;;;7.62;100.00;96427.13;5060250;28;20060;-38
2023/01/08 09:41:37;;;;;;;1.13;0.95;;;8.30;99.90;;;7.65;100.00;96441.91;5059988;28;20090;-38
2023/01/08 09:44:05;;;;;;;3.92;0.80;;;8.30;99.90;;;7.68;100.00;96433.91;5060976;28;20119;-38
2023/01/08 09:46:31;;;;;;;2.95;0.93;;;8.30;99.90;;;7.69;100.00;96437.38;5063656;28;20082;-38
2023/01/08 09:49:06;;;;;;;2.17;1.10;;;8.30;99.90;;;7.69;100.00;96440.84;5052996;28;20036;-38
2023/01/08 09:51:36;;;;;;;2.30;1.00;;;8.30;99.90;;;7.71;100.00;96440.78;5057716;28;20039;-38
2023/01/08 09:54:06;;;;;;;2.20;0.90;;;8.30;99.90;;;7.73;100.00;96434.56;5052139;28;20033;-38
2023/01/08 09:56:34;;;;;;;1.17;1.08;;;8.40;99.90;;;7.74;100.00;96425.78;5057407;28;20033;-43
2023/01/08 09:59:02;;;;;;;3.63;0.90;;;8.40;99.90;;;7.75;100.00;96438.00;5061173;28;20549;-42
2023/01/08 10:01:37;;;;;;;0.77;0.77;;;8.40;99.90;;;7.75;100.00;96435.38;5064347;28;20024;-42
2023/01/08 10:04:19;;;;;;;1.98;0.93;;;8.40;99.90;;;7.84;100.00;96434.13;5052971;28;20045;-42
2023/01/08 10:06:49;;;;;;;;;;;8.50;99.90;;;7.86;100.00;96444.56;5057094;28;20571;-42
2023/01/08 10:09:16;;;;;;;1.35;0.90;;;8.50;99.90;;;7.87;100.00;96436.63;5058429;28;20487;-43
2023/01/08 10:11:47;;;;;;;1.23;0.60;;;8.60;99.90;;;8.03;100.00;96447.34;5055840;28;20638;-42
2023/01/08 10:14:24;;;;;;;1.17;0.90;;;8.60;99.90;;;8.08;100.00;96444.53;5053308;28;20032;-43
2023/01/08 10:17:06;;;;;;;1.75;0.95;;;8.70;99.90;;;8.10;100.00;96446.16;5055745;28;20081;-44
2023/01/08 10:19:31;;;;;;;1.10;1.00;;;8.70;99.90;;;8.13;100.00;96446.03;5057663;28;20111;-41
2023/01/08 10:21:57;;;;;;;1.48;0.98;;;8.80;99.90;;;8.16;100.00;96427.50;5047434;28;20048;-41
2023/01/08 10:24:38;;;;;;;1.58;1.20;;;8.90;99.90;;;8.30;100.00;96439.22;5047536;28;20400;-41
2023/01/08 10:27:06;;;;;;;2.95;0.85;;;8.90;99.90;;;8.39;100.00;96434.38;5048763;28;20068;-41
2023/01/08 10:29:31;;;;;;;1.13;0.80;;;9.00;99.90;;;8.46;100.00;96444.69;5048778;28;20027;-42
2023/01/08 10:31:57;;;;;;;0.90;0.80;;;9.10;99.90;;;8.54;100.00;96434.66;5041182;28;20040;-41
2023/01/08 10:34:42;;;;;;;1.65;0.85;;;9.10;99.90;;;8.62;100.00;96436.97;5037929;28;20056;-41
2023/01/08 10:37:27;;;;;;;4.00;0.90;;;9.20;99.90;;;8.68;100.00;96426.19;5036996;28;20029;-39
2023/01/08 10:40:04;;;;;;;1.38;0.93;;;9.30;99.90;;;8.66;100.00;96428.88;5046249;28;20029;-39
2023/01/08 10:42:34;;;;;;;0.93;0.80;;;9.30;99.90;;;8.68;100.00;96419.13;5040125;28;20116;-40
2023/01/08 10:45:04;;;;;;;2.85;0.75;;;9.30;99.90;;;8.66;100.00;96421.00;5025019;28;20564;-40
2023/01/08 10:47:34;;;;;;;1.38;0.80;;;9.30;99.90;;;8.73;100.00;96411.06;5049963;28;20029;-41
2023/01/08 10:50:02;;;;;;;0.95;0.70;;;9.40;99.90;;;8.78;100.00;96412.56;5049336;28;20101;-41
2023/01/08 10:52:35;;;;;;;0.77;0.63;;;9.40;99.90;;;8.75;100.00;96410.06;5040478;28;20113;-39
2023/01/08 10:55:25;;;;;;;1.65;1.00;;;9.40;99.90;;;8.82;100.00;96408.00;5045576;28;20028;-39
2023/01/08 10:58:07;;;;;;;1.30;0.70;;;9.50;99.90;;;8.91;100.00;96410.22;5043617;28;20114;-39
2023/01/08 11:00:35;;;;;;;0.70;0.70;;;9.50;99.90;;;8.99;100.00;96417.75;5029397;28;20037;-42
2023/01/08 11:03:06;;;;;;;1.00;0.75;;;9.60;99.90;;;9.04;100.00;96414.91;5033982;28;20033;-41
2023/01/08 11:05:34;;;;;;;1.55;0.80;;;9.70;99.90;;;9.10;100.00;96402.34;5050472;28;20024;-41
2023/01/08 11:08:04;;;;;;;1.10;0.80;;;9.80;99.90;;;9.18;100.00;96412.47;5042902;28;20499;-41
2023/01/08 11:10:33;;;;;;;1.98;0.90;;;9.90;99.90;;;9.20;100.00;96388.75;5032159;28;20037;-39
2023/01/08 11:13:03;;;;;;;0.98;0.68;;;9.90;99.90;;;9.39;100.00;96412.41;5041808;28;20079;-40
2023/01/08 11:15:40;;;;;;;1.20;0.70;;;10.00;99.90;;;9.54;100.00;96403.75;5034587;28;20036;-40
2023/01/08 11:18:21;;;;;;;1.33;0.52;;;10.10;99.90;;;9.59;100.00;96401.75;5039669;28;20098;-40
2023/01/08 11:20:48;;;;;;;0.50;0.50;;;10.20;99.90;;;9.71;100.00;96398.50;5032668;28;20052;-40